Time;durP1;ratioP1;P1;durP2;ratioP2;P2;SDS_P1;SDS_P2;PMS_P1;PMS_P2;Temp;Humidity;BMP_temperature;BMP_pressure;BME280_temperature;BME280_humidity;BME280_pressure;Samples;Min_cycle;Max_cycle;Signal;HPM_P1;HPM_P2
2022/09/25 00:01:31;;;;;;;4.72;1.58;;;14.10;81.20;;;;;;5115392;28;20027;-62
2022/09/25 00:03:57;;;;;;;8.32;2.40;;;14.10;81.10;;;;;;5115136;27;20023;-63
2022/09/25 00:06:24;;;;;;;4.60;1.58;;;14.10;81.20;;;;;;5119918;27;20035;-63
2022/09/25 00:08:51;;;;;;;7.60;1.73;;;14.10;81.20;;;;;;5114548;27;20504;-63
2022/09/25 00:11:23;;;;;;;6.45;1.63;;;14.10;81.20;;;;;;5114679;28;20031;-63
2022/09/25 00:13:50;;;;;;;7.20;1.90;;;14.10;81.10;;;;;;5101625;28;20368;-63
2022/09/25 00:16:18;;;;;;;5.97;2.03;;;14.10;81.10;;;;;;5115907;27;20050;-62
2022/09/25 00:21:31;;;;;;;4.97;1.40;;;14.10;81.10;;;;;;5108809;28;20034;-63
2022/09/25 00:24:06;;;;;;;4.55;1.73;;;14.10;81.10;;;;;;5115523;28;20106;-62
2022/09/25 00:26:34;;;;;;;8.02;2.28;;;14.10;81.00;;;;;;5114584;28;20023;-63
2022/09/25 00:29:00;;;;;;;5.05;1.83;;;14.00;81.60;;;;;;5114423;28;20020;-63
2022/09/25 00:31:27;;;;;;;6.43;1.70;;;14.00;80.90;;;;;;5114231;28;20046;-63
2022/09/25 00:33:55;;;;;;;5.93;1.95;;;14.00;80.90;;;;;;5113374;28;20043;-62
2022/09/25 00:36:21;;;;;;;8.15;2.10;;;14.00;80.90;;;;;;5114042;28;20070;-63
2022/09/25 00:38:47;;;;;;;12.70;2.40;;;14.00;80.90;;;;;;5112656;28;20132;-62
2022/09/25 00:41:15;;;;;;;9.05;2.08;;;13.90;80.80;;;;;;5115075;28;20040;-63
2022/09/25 00:43:49;;;;;;;7.70;2.22;;;13.90;80.80;;;;;;5114467;28;20036;-62
2022/09/25 00:46:32;;;;;;;8.50;2.30;;;13.90;80.80;;;;;;5103324;28;20024;-62
2022/09/25 00:49:21;;;;;;;7.78;2.35;;;13.90;80.70;;;;;;5114982;28;20019;-62
2022/09/25 00:51:55;;;;;;;8.80;2.15;;;13.80;81.30;;;;;;5121407;28;20019;-62
2022/09/25 00:54:30;;;;;;;4.80;1.52;;;13.80;80.70;;;;;;5114504;27;20122;-63
2022/09/25 00:56:59;;;;;;;5.95;1.98;;;13.80;80.60;;;;;;5114121;28;20028;-63
2022/09/25 00:59:31;;;;;;;6.28;2.20;;;13.70;80.60;;;;;;5114748;28;20036;-62
2022/09/25 01:01:58;;;;;;;8.38;2.03;;;13.70;80.60;;;;;;5113809;28;20027;-62
2022/09/25 01:04:27;;;;;;;5.30;2.22;;;13.70;80.60;;;;;;5114581;28;20047;-62
2022/09/25 01:06:53;;;;;;;6.18;1.95;;;13.60;80.50;;;;;;5113871;28;20139;-62
2022/09/25 01:09:19;;;;;;;7.43;1.85;;;13.60;80.50;;;;;;5114531;28;20027;-62
2022/09/25 01:11:45;;;;;;;11.10;2.30;;;13.60;80.50;;;;;;5112811;28;20131;-63
2022/09/25 01:14:16;;;;;;;6.85;1.60;;;13.50;80.50;;;;;;5113890;28;20114;-63
2022/09/25 01:17:10;;;;;;;5.45;1.98;;;13.50;80.40;;;;;;5114127;28;20040;-63
2022/09/25 01:20:13;;;;;;;5.57;2.03;;;13.50;81.00;;;;;;5103956;28;20360;-62
2022/09/25 01:22:44;;;;;;;8.63;1.88;;;13.50;80.30;;;;;;5104907;28;20352;-62
2022/09/25 01:25:44;;;;;;;5.88;2.10;;;13.40;80.30;;;;;;5116906;28;20059;-62
2022/09/25 01:28:47;;;;;;;3.78;1.60;;;13.40;80.20;;;;;;5107921;28;20085;-62
2022/09/25 01:31:39;;;;;;;4.18;1.55;;;13.40;80.10;;;;;;5105164;28;20039;-63
2022/09/25 01:34:21;;;;;;;4.72;1.73;;;13.40;80.20;;;;;;5095989;27;20050;-62
2022/09/25 01:37:08;;;;;;;4.20;1.73;;;13.30;80.20;;;;;;5118505;27;20055;-62
2022/09/25 01:39:45;;;;;;;4.28;1.75;;;13.30;80.20;;;;;;5112534;27;20394;-62
2022/09/25 01:42:25;;;;;;;5.38;1.73;;;13.30;80.10;;;;;;5117619;28;20028;-62
2022/09/25 01:45:15;;;;;;;4.50;1.77;;;13.30;80.10;;;;;;5116788;28;20024;-62
2022/09/25 01:47:46;;;;;;;6.50;1.42;;;13.20;80.00;;;;;;5118183;27;20024;-62
2022/09/25 01:50:17;;;;;;;4.68;1.90;;;13.20;80.10;;;;;;5117926;28;20024;-62
2022/09/25 01:52:48;;;;;;;3.63;1.40;;;13.20;80.10;;;;;;5118014;28;20039;-62
2022/09/25 01:55:29;;;;;;;6.17;1.50;;;13.20;80.10;;;;;;5116752;27;20019;-63
2022/09/25 01:58:10;;;;;;;4.28;1.65;;;13.20;80.00;;;;;;5117427;27;20020;-62
2022/09/25 02:00:40;;;;;;;3.30;1.40;;;13.20;80.00;;;;;;5117316;28;20043;-62
2022/09/25 02:03:12;;;;;;;4.72;1.60;;;13.10;80.00;;;;;;5117475;28;20027;-62
2022/09/25 02:05:45;;;;;;;6.60;1.75;;;13.10;79.90;;;;;;5119725;27;20352;-62
2022/09/25 02:08:21;;;;;;;5.25;1.75;;;13.10;79.80;;;;;;5116814;28;20024;-62
2022/09/25 02:10:54;;;;;;;5.22;1.70;;;13.10;79.80;;;;;;5115713;27;20036;-62
2022/09/25 02:13:22;;;;;;;5.05;1.80;;;13.10;79.80;;;;;;5115978;27;20027;-62
2022/09/25 02:15:58;;;;;;;3.95;1.40;;;13.00;79.70;;;;;;5120475;27;20047;-62
2022/09/25 02:21:15;;;;;;;4.47;1.52;;;13.00;79.60;;;;;;5118294;27;20077;-62
2022/09/25 02:24:03;;;;;;;5.38;1.63;;;13.00;79.60;;;;;;5120079;27;20042;-62
2022/09/25 02:26:32;;;;;;;4.22;1.85;;;13.00;79.60;;;;;;5115142;27;20067;-62
2022/09/25 02:28:58;;;;;;;3.58;1.58;;;12.90;79.60;;;;;;5116938;27;20024;-62
2022/09/25 02:31:43;;;;;;;4.88;1.80;;;12.90;79.60;;;;;;5118180;27;20035;-62
2022/09/25 02:34:10;;;;;;;4.88;1.40;;;12.90;79.50;;;;;;5116098;27;20102;-63
2022/09/25 02:36:35;;;;;;;4.38;1.52;;;12.90;79.60;;;;;;5118234;27;20036;-62
2022/09/25 02:39:04;;;;;;;6.45;1.95;;;12.90;80.20;;;;;;5116600;28;20534;-62
2022/09/25 02:41:51;;;;;;;4.95;1.40;;;12.90;79.60;;;;;;5115922;28;20130;-62
2022/09/25 02:44:16;;;;;;;6.30;1.50;;;12.90;79.50;;;;;;5085010;28;20048;-63
2022/09/25 02:47:04;;;;;;;4.30;1.63;;;12.90;79.50;;;;;;5109568;28;20031;-62
2022/09/25 02:50:04;;;;;;;5.55;1.80;;;12.90;79.50;;;;;;5097485;28;20078;-62
2022/09/25 02:53:04;;;;;;;5.55;1.48;;;12.80;79.30;;;;;;5098471;28;20352;-62
2022/09/25 02:55:47;;;;;;;4.68;1.50;;;12.80;79.40;;;;;;5095961;28;20437;-62
2022/09/25 02:58:32;;;;;;;6.78;1.55;;;12.80;79.50;;;;;;5103670;27;20027;-62
2022/09/25 03:01:01;;;;;;;4.47;1.38;;;12.80;79.50;;;;;;5117266;27;20360;-62
2022/09/25 03:03:27;;;;;;;5.18;1.70;;;12.80;79.50;;;;;;5100881;28;20027;-62
2022/09/25 03:05:56;;;;;;;3.50;1.48;;;12.80;79.50;;;;;;5116121;27;20024;-62
2022/09/25 03:08:39;;;;;;;4.13;1.63;;;12.70;79.40;;;;;;5102309;28;20016;-63
2022/09/25 03:11:11;;;;;;;5.55;1.75;;;12.70;79.40;;;;;;5098885;28;20107;-62
2022/09/25 03:13:37;;;;;;;6.60;1.90;;;12.70;79.40;;;;;;5102169;27;20035;-62
2022/09/25 03:16:22;;;;;;;5.10;1.75;;;12.70;79.40;;;;;;5101994;28;20111;-62
2022/09/25 03:18:48;;;;;;;7.22;1.92;;;12.70;79.40;;;;;;5101598;28;20055;-62
2022/09/25 03:21:14;;;;;;;3.60;1.65;;;12.70;79.50;;;;;;5095138;28;20510;-62
2022/09/25 03:23:39;;;;;;;4.53;2.00;;;12.70;79.50;;;;;;5098888;28;20043;-62
2022/09/25 03:26:06;;;;;;;7.25;1.92;;;12.70;79.50;;;;;;5098631;28;20028;-62
2022/09/25 03:28:33;;;;;;;4.10;1.60;;;12.70;79.50;;;;;;5099358;28;20031;-62
2022/09/25 03:31:03;;;;;;;7.10;2.10;;;12.70;79.40;;;;;;5100799;27;20333;-62
2022/09/25 03:33:33;;;;;;;4.10;1.95;;;12.60;79.30;;;;;;5110050;28;20019;-62
2022/09/25 03:36:00;;;;;;;5.13;1.60;;;12.60;79.30;;;;;;5113922;28;20029;-63
2022/09/25 03:38:26;;;;;;;7.10;1.60;;;12.60;79.30;;;;;;5112269;28;20024;-62
2022/09/25 03:40:51;;;;;;;5.32;1.73;;;12.60;79.30;;;;;;5099635;28;20432;-62
2022/09/25 03:43:17;;;;;;;5.57;1.70;;;12.60;79.30;;;;;;5094422;28;20051;-62
2022/09/25 03:45:43;;;;;;;5.38;2.05;;;12.60;79.30;;;;;;5102148;28;20099;-62
2022/09/25 03:48:08;;;;;;;6.22;1.90;;;12.50;79.20;;;;;;5105197;27;20464;-62
2022/09/25 03:50:34;;;;;;;4.25;1.67;;;12.50;79.20;;;;;;5105408;27;20137;-62
2022/09/25 03:53:00;;;;;;;5.70;2.03;;;12.50;79.20;;;;;;5100410;28;20023;-62
2022/09/25 03:55:25;;;;;;;6.20;1.55;;;12.50;79.30;;;;;;5094426;28;20035;-63
2022/09/25 03:57:51;;;;;;;7.78;1.80;;;12.50;79.30;;;;;;5100583;28;20082;-63
2022/09/25 04:00:16;;;;;;;5.28;1.73;;;12.50;79.30;;;;;;5113052;28;20084;-63
2022/09/25 04:02:42;;;;;;;6.38;2.00;;;12.50;79.30;;;;;;5114932;28;20035;-62
2022/09/25 04:05:08;;;;;;;4.07;1.85;;;12.50;79.30;;;;;;5113861;28;20076;-62
2022/09/25 04:07:34;;;;;;;4.85;1.33;;;12.50;79.30;;;;;;5114736;28;20023;-62
2022/09/25 04:10:00;;;;;;;5.80;1.85;;;12.50;79.40;;;;;;5114806;28;20038;-62
2022/09/25 04:12:27;;;;;;;5.65;1.60;;;12.50;79.40;;;;;;5114408;28;20039;-62
2022/09/25 04:14:53;;;;;;;5.35;2.00;;;12.50;79.40;;;;;;5114102;27;20054;-62
2022/09/25 04:17:19;;;;;;;4.72;1.45;;;12.50;79.50;;;;;;5119622;27;20470;-62
2022/09/25 04:19:45;;;;;;;6.43;1.50;;;12.50;79.50;;;;;;5115075;28;20027;-62
2022/09/25 04:22:11;;;;;;;5.50;2.20;;;12.50;79.60;;;;;;5114709;27;20028;-62
2022/09/25 04:24:49;;;;;;;4.72;1.63;;;12.50;79.50;;;;;;5113914;27;20027;-62
2022/09/25 04:27:19;;;;;;;4.28;1.90;;;12.50;79.60;;;;;;5113498;28;20039;-63
2022/09/25 04:29:45;;;;;;;6.45;1.98;;;12.50;79.60;;;;;;5113973;28;20047;-62
2022/09/25 04:34:57;;;;;;;7.10;1.83;;;12.50;79.60;;;;;;5113808;28;20036;-62
2022/09/25 04:37:25;;;;;;;5.07;1.65;;;12.50;79.50;;;;;;5114197;28;20038;-62
2022/09/25 04:39:55;;;;;;;4.40;1.83;;;12.50;79.60;;;;;;5114203;28;20063;-62
2022/09/25 04:42:23;;;;;;;5.60;1.55;;;12.50;79.60;;;;;;5113951;28;20037;-62
2022/09/25 04:44:50;;;;;;;7.32;2.40;;;12.50;79.60;;;;;;5113053;28;20412;-62
2022/09/25 04:47:16;;;;;;;5.25;1.95;;;12.50;79.60;;;;;;5120451;27;20442;-62
2022/09/25 04:49:41;;;;;;;9.32;2.20;;;12.40;79.60;;;;;;5114494;28;20026;-62
2022/09/25 04:52:07;;;;;;;7.38;1.85;;;12.40;79.70;;;;;;5113626;28;20030;-62
2022/09/25 04:54:33;;;;;;;4.07;1.52;;;12.40;79.70;;;;;;5133908;27;20118;-62
2022/09/25 04:56:58;;;;;;;3.35;1.55;;;12.40;79.70;;;;;;5117705;28;20032;-62
2022/09/25 04:59:24;;;;;;;5.45;1.63;;;12.40;79.70;;;;;;5118650;27;20111;-62
2022/09/25 05:01:50;;;;;;;5.72;1.88;;;12.40;79.70;;;;;;5117969;28;20110;-62
2022/09/25 05:04:15;;;;;;;5.13;1.70;;;12.40;79.70;;;;;;5117876;27;20431;-62
2022/09/25 05:06:41;;;;;;;7.40;1.73;;;12.40;79.80;;;;;;5117390;28;20023;-62
2022/09/25 05:09:07;;;;;;;5.10;1.80;;;12.40;79.80;;;;;;5118997;28;20119;-62
2022/09/25 05:11:33;;;;;;;6.28;1.90;;;12.40;79.90;;;;;;5122647;27;20138;-62
2022/09/25 05:13:59;;;;;;;5.93;1.80;;;12.40;79.80;;;;;;5117535;27;20499;-62
2022/09/25 05:16:26;;;;;;;5.88;1.75;;;12.40;79.80;;;;;;5116812;28;20364;-63
2022/09/25 05:18:52;;;;;;;5.15;2.10;;;12.40;79.70;;;;;;5118251;28;20023;-62
2022/09/25 05:21:18;;;;;;;5.43;1.90;;;12.40;79.80;;;;;;5117406;28;20024;-62
2022/09/25 05:23:43;;;;;;;6.20;1.83;;;12.40;79.80;;;;;;5117535;28;20020;-62
2022/09/25 05:26:09;;;;;;;9.00;1.92;;;12.30;79.70;;;;;;5117951;28;20024;-62
2022/09/25 05:28:35;;;;;;;6.65;1.80;;;12.30;79.70;;;;;;5117226;28;20031;-62
2022/09/25 05:31:02;;;;;;;5.25;1.60;;;12.30;79.70;;;;;;5119340;27;20027;-62
2022/09/25 05:33:31;;;;;;;5.53;1.95;;;12.30;79.70;;;;;;5131428;27;20027;-62
2022/09/25 05:36:01;;;;;;;5.28;2.03;;;12.30;79.70;;;;;;5117699;28;20036;-62
2022/09/25 05:38:27;;;;;;;5.32;1.80;;;12.30;79.70;;;;;;5116872;28;20088;-63
2022/09/25 05:40:54;;;;;;;4.63;1.83;;;12.30;79.70;;;;;;5116926;28;20031;-62
2022/09/25 05:43:20;;;;;;;4.57;1.80;;;12.30;79.70;;;;;;5117749;28;20023;-62
2022/09/25 05:45:55;;;;;;;4.95;1.83;;;12.30;79.70;;;;;;5117368;28;20028;-62
2022/09/25 05:48:22;;;;;;;8.85;2.50;;;12.30;79.70;;;;;;5120457;27;20102;-62
2022/09/25 05:50:52;;;;;;;5.38;1.83;;;12.30;79.70;;;;;;5116269;27;20031;-62
2022/09/25 05:53:17;;;;;;;5.10;1.85;;;12.30;80.30;;;;;;5117012;28;20027;-63
2022/09/25 05:55:50;;;;;;;3.60;1.75;;;12.30;79.70;;;;;;5116595;28;20126;-63
2022/09/25 05:58:16;;;;;;;7.13;2.15;;;12.30;79.70;;;;;;5134798;27;20069;-62
2022/09/25 06:00:42;;;;;;;6.38;2.10;;;12.30;79.70;;;;;;5123644;27;20047;-61
2022/09/25 06:03:09;;;;;;;4.88;2.03;;;12.30;79.70;;;;;;5116468;27;20022;-61
2022/09/25 06:05:35;;;;;;;3.90;1.70;;;12.30;79.70;;;;;;5117220;28;20023;-62
2022/09/25 06:08:01;;;;;;;3.95;1.80;;;12.30;79.60;;;;;;5117487;28;20041;-61
2022/09/25 06:10:27;;;;;;;6.13;1.80;;;12.30;79.60;;;;;;5117635;27;20368;-61
2022/09/25 06:13:00;;;;;;;6.45;2.10;;;12.30;79.70;;;;;;5117359;28;20067;-61
2022/09/25 06:15:27;;;;;;;4.78;1.83;;;12.30;79.70;;;;;;5117187;28;20052;-62
2022/09/25 06:17:53;;;;;;;3.80;1.55;;;12.20;79.70;;;;;;5116384;28;20115;-62
2022/09/25 06:20:21;;;;;;;3.65;1.90;;;12.30;80.40;;;;;;5116818;28;20434;-61
2022/09/25 06:22:57;;;;;;;4.30;1.70;;;12.30;79.80;;;;;;5116712;28;20096;-62
2022/09/25 06:25:25;;;;;;;3.90;1.80;;;12.30;79.70;;;;;;5117248;28;20024;-61
2022/09/25 06:27:55;;;;;;;4.13;1.88;;;12.30;79.70;;;;;;5117395;28;20027;-61
2022/09/25 06:30:27;;;;;;;3.33;1.73;;;12.40;79.70;;;;;;5116905;28;20031;-61
2022/09/25 06:33:11;;;;;;;4.95;1.83;;;12.40;79.70;;;;;;5117109;28;20042;-62
2022/09/25 06:35:42;;;;;;;4.05;1.88;;;12.40;79.70;;;;;;5115958;28;20030;-61
2022/09/25 06:38:08;;;;;;;4.50;1.90;;;12.40;79.60;;;;;;5116953;28;20034;-61
2022/09/25 06:40:36;;;;;;;3.70;1.85;;;12.40;79.60;;;;;;5116870;28;20368;-61
2022/09/25 06:43:03;;;;;;;4.22;2.17;;;12.50;79.70;;;;;;5115639;28;20037;-61
2022/09/25 06:45:32;;;;;;;4.20;1.88;;;12.50;79.70;;;;;;5115964;27;20088;-61
2022/09/25 06:48:05;;;;;;;5.22;2.08;;;12.50;79.70;;;;;;5129643;27;20080;-61
2022/09/25 06:50:41;;;;;;;4.35;1.95;;;12.60;79.60;;;;;;5116693;28;20031;-61
2022/09/25 06:53:08;;;;;;;6.28;2.25;;;12.60;79.50;;;;;;5114673;28;20024;-61
2022/09/25 06:55:36;;;;;;;5.55;1.83;;;12.60;79.40;;;;;;5115068;27;20020;-61
2022/09/25 06:58:04;;;;;;;4.55;1.50;;;12.70;79.40;;;;;;5115515;28;20501;-62
2022/09/25 07:00:31;;;;;;;2.63;1.40;;;12.70;79.40;;;;;;5117422;27;20147;-62
2022/09/25 07:05:43;;;;;;;4.40;1.80;;;12.80;79.50;;;;;;5115708;28;20028;-61
2022/09/25 07:08:16;;;;;;;4.18;1.75;;;12.70;79.30;;;;;;5114903;28;20472;-62
2022/09/25 07:10:52;;;;;;;5.40;1.77;;;12.90;79.50;;;;;;5116069;28;20071;-61
2022/09/25 07:13:24;;;;;;;4.45;1.92;;;12.90;79.40;;;;;;5116357;28;20436;-62
2022/09/25 07:15:54;;;;;;;7.22;1.92;;;13.00;79.40;;;;;;5115401;28;20071;-61
2022/09/25 07:18:21;;;;;;;3.38;1.67;;;13.00;79.30;;;;;;5128444;27;20019;-61
2022/09/25 07:20:47;;;;;;;7.18;1.90;;;13.10;79.30;;;;;;5115615;28;20351;-61
2022/09/25 07:23:15;;;;;;;4.63;1.92;;;13.10;79.40;;;;;;5116553;28;20031;-62
2022/09/25 07:25:42;;;;;;;7.32;1.95;;;13.20;79.30;;;;;;5133663;27;20024;-62
2022/09/25 07:28:08;;;;;;;5.85;1.80;;;13.30;79.20;;;;;;5126628;27;20132;-62
2022/09/25 07:30:34;;;;;;;4.65;1.75;;;13.40;79.20;;;;;;5118230;27;20054;-62
2022/09/25 07:33:01;;;;;;;6.35;1.80;;;13.50;79.20;;;;;;5114552;28;20419;-61
2022/09/25 07:35:27;;;;;;;3.95;1.70;;;13.60;79.00;;;;;;5115030;28;20055;-62
2022/09/25 07:37:58;;;;;;;5.85;1.70;;;13.60;78.80;;;;;;5114743;28;20074;-61
2022/09/25 07:40:27;;;;;;;5.32;1.52;;;13.80;78.70;;;;;;5115959;28;20020;-61
2022/09/25 07:43:03;;;;;;;5.13;1.50;;;13.90;78.50;;;;;;5120004;27;20027;-62
2022/09/25 07:45:29;;;;;;;3.40;1.40;;;14.00;78.30;;;;;;5115762;27;20039;-61
2022/09/25 07:48:02;;;;;;;2.95;1.40;;;14.10;78.20;;;;;;5116054;28;20019;-62
2022/09/25 07:50:29;;;;;;;6.25;1.88;;;14.30;77.90;;;;;;5116381;28;20027;-65
2022/09/25 07:52:55;;;;;;;4.32;1.48;;;14.50;77.60;;;;;;5115793;27;20039;-62
2022/09/25 07:55:21;;;;;;;4.35;1.55;;;14.60;77.30;;;;;;5115499;28;20024;-62
2022/09/25 07:57:48;;;;;;;4.78;1.40;;;14.70;77.10;;;;;;5116927;27;20143;-63
2022/09/25 08:00:14;;;;;;;3.85;1.40;;;14.90;76.80;;;;;;5114312;27;20145;-62
2022/09/25 08:02:41;;;;;;;3.63;1.40;;;15.10;76.40;;;;;;5114519;28;20036;-62
2022/09/25 08:05:08;;;;;;;6.85;1.67;;;15.30;76.00;;;;;;5118201;27;20034;-62
2022/09/25 08:07:34;;;;;;;3.33;1.48;;;15.50;75.60;;;;;;5123794;27;20019;-62
2022/09/25 08:09:59;;;;;;;3.58;1.38;;;15.70;75.20;;;;;;5115031;28;20031;-61
2022/09/25 08:12:26;;;;;;;5.93;1.58;;;15.90;74.80;;;;;;5113165;28;20432;-62
2022/09/25 08:14:52;;;;;;;3.90;1.25;;;16.20;74.40;;;;;;5114270;28;20058;-62
2022/09/25 08:17:18;;;;;;;6.80;1.63;;;16.40;74.00;;;;;;5114568;28;20024;-61
2022/09/25 08:19:47;;;;;;;4.20;1.48;;;16.50;73.60;;;;;;5115596;28;20119;-61
2022/09/25 08:22:13;;;;;;;3.85;1.40;;;16.60;73.10;;;;;;5115282;28;20027;-61
2022/09/25 08:24:38;;;;;;;3.03;1.20;;;16.80;72.70;;;;;;5115280;28;20464;-61
2022/09/25 08:27:06;;;;;;;3.75;1.35;;;17.00;72.40;;;;;;5115235;28;20106;-61
2022/09/25 08:29:32;;;;;;;4.82;1.80;;;17.20;72.10;;;;;;5114021;28;20023;-61
2022/09/25 08:31:58;;;;;;;5.97;1.98;;;17.30;71.40;;;;;;5115560;28;20036;-62
2022/09/25 08:34:24;;;;;;;3.58;1.38;;;17.40;70.90;;;;;;5115654;28;20076;-61
2022/09/25 08:36:50;;;;;;;4.90;1.88;;;17.60;70.60;;;;;;5115297;28;20118;-61
2022/09/25 08:39:16;;;;;;;4.93;1.30;;;17.70;70.10;;;;;;5122945;27;20031;-61
2022/09/25 08:41:47;;;;;;;6.55;1.30;;;17.70;69.80;;;;;;5115563;28;20052;-62
2022/09/25 08:44:33;;;;;;;7.78;1.60;;;17.80;69.30;;;;;;5115037;28;20037;-61
2022/09/25 08:50:20;;;;;;;3.30;1.17;;;18.10;68.60;;;;;;5103055;28;20027;-61
2022/09/25 08:52:49;;;;;;;7.78;1.55;;;18.30;68.40;;;;;;5114107;28;20035;-63
2022/09/25 08:56:13;;;;;;;4.13;1.55;;;18.30;68.10;;;;;;5119951;28;20435;-61
2022/09/25 08:58:22;;;;;;;7.13;1.70;;;18.40;67.80;;;;;;5116532;28;20034;-61
2022/09/25 09:00:48;;;;;;;4.03;1.20;;;18.50;67.60;;;;;;5114926;28;20444;-61
2022/09/25 09:03:15;;;;;;;5.93;1.20;;;18.60;67.50;;;;;;5114682;28;20050;-61
2022/09/25 09:05:45;;;;;;;4.82;1.17;;;18.50;67.40;;;;;;5111690;28;20028;-64
2022/09/25 09:08:16;;;;;;;4.95;1.40;;;18.50;67.50;;;;;;5109821;28;20016;-62
2022/09/25 09:10:48;;;;;;;3.70;1.17;;;18.60;67.40;;;;;;5112547;28;20367;-62
2022/09/25 09:13:16;;;;;;;4.13;1.13;;;18.70;66.90;;;;;;5110993;28;20444;-61
2022/09/25 09:15:44;;;;;;;4.63;1.13;;;18.80;66.70;;;;;;5111041;28;20051;-63
2022/09/25 09:18:25;;;;;;;4.57;1.08;;;19.00;66.40;;;;;;5110306;28;20039;-61
2022/09/25 09:20:53;;;;;;;4.18;1.30;;;19.10;66.10;;;;;;5121894;28;20075;-62
2022/09/25 09:23:30;;;;;;;3.03;1.23;;;19.30;66.00;;;;;;5120599;27;20019;-61
2022/09/25 09:26:19;;;;;;;3.65;1.20;;;19.40;65.60;;;;;;5130390;28;20074;-62
2022/09/25 09:29:32;;;;;;;3.28;1.17;;;19.50;65.30;;;;;;5112973;28;20015;-62
2022/09/25 09:32:27;;;;;;;3.15;1.23;;;19.50;65.30;;;;;;5106011;28;20126;-62
2022/09/25 09:35:20;;;;;;;3.70;0.95;;;19.60;64.90;;;;;;5102479;28;20040;-62
2022/09/25 09:38:03;;;;;;;4.28;0.90;;;19.60;64.80;;;;;;5110402;28;20100;-62
2022/09/25 09:40:48;;;;;;;2.67;1.02;;;19.70;64.40;;;;;;5113409;28;20028;-62
2022/09/25 09:43:51;;;;;;;2.75;0.80;;;19.80;64.00;;;;;;5113399;27;20066;-62
2022/09/25 09:46:31;;;;;;;3.78;1.00;;;19.70;63.50;;;;;;5126581;27;20032;-61
2022/09/25 09:49:02;;;;;;;3.55;1.10;;;19.70;63.70;;;;;;5109822;27;20026;-61
2022/09/25 09:51:42;;;;;;;3.08;1.20;;;19.80;63.50;;;;;;5109616;28;20420;-61
2022/09/25 09:54:11;;;;;;;3.15;1.00;;;19.90;62.90;;;;;;5111544;28;20114;-61
2022/09/25 09:56:40;;;;;;;4.15;1.00;;;19.90;62.70;;;;;;5108642;27;20059;-61
2022/09/25 09:59:14;;;;;;;3.15;1.40;;;19.80;62.50;;;;;;5113446;27;20034;-61
2022/09/25 10:01:42;;;;;;;3.80;1.10;;;19.90;62.60;;;;;;5113944;27;20372;-61
2022/09/25 10:04:21;;;;;;;4.38;1.05;;;19.90;62.50;;;;;;5112853;27;20444;-61
2022/09/25 10:06:58;;;;;;;3.78;1.02;;;20.00;62.20;;;;;;5112511;28;20102;-61
2022/09/25 10:09:25;;;;;;;3.38;0.88;;;20.20;61.90;;;;;;5113971;28;20028;-61
2022/09/25 10:11:59;;;;;;;1.95;0.80;;;20.30;61.60;;;;;;5114457;27;20348;-61
2022/09/25 10:14:31;;;;;;;3.92;0.82;;;20.40;60.90;;;;;;5117667;28;20047;-61
2022/09/25 10:16:57;;;;;;;3.28;1.05;;;20.30;60.10;;;;;;5112880;28;20054;-61
2022/09/25 10:19:27;;;;;;;4.70;1.17;;;20.40;60.20;;;;;;5112630;28;20076;-61
2022/09/25 10:22:15;;;;;;;3.95;1.08;;;20.40;60.10;;;;;;5110274;28;20107;-62
2022/09/25 10:25:00;;;;;;;6.05;1.20;;;20.50;59.80;;;;;;5112644;28;20027;-61
2022/09/25 10:27:32;;;;;;;1.92;0.82;;;20.60;59.70;;;;;;5110148;28;20043;-62
2022/09/25 10:30:04;;;;;;;2.50;0.90;;;20.70;59.50;;;;;;5110519;27;20073;-62
2022/09/25 10:32:33;;;;;;;1.67;0.80;;;20.50;59.10;;;;;;5110219;27;20036;-62
2022/09/25 10:34:59;;;;;;;3.10;0.77;;;20.50;59.20;;;;;;5111967;27;20031;-61
2022/09/25 10:37:33;;;;;;;2.22;0.80;;;20.50;59.20;;;;;;5112759;27;20043;-62
2022/09/25 10:40:03;;;;;;;4.32;1.00;;;20.70;58.80;;;;;;5108270;28;20058;-61
2022/09/25 10:42:38;;;;;;;3.13;1.42;;;20.70;58.40;;;;;;5110744;28;20039;-61
2022/09/25 10:45:28;;;;;;;6.00;1.27;;;20.60;58.30;;;;;;5110995;28;20084;-62
2022/09/25 10:50:37;;;;;;;2.40;0.90;;;19.90;59.90;;;;;;5110677;28;20044;-62
2022/09/25 10:53:04;;;;;;;3.22;1.00;;;19.80;59.60;;;;;;5111844;28;20022;-62
2022/09/25 10:55:34;;;;;;;3.95;1.08;;;19.80;59.20;;;;;;5112765;27;20459;-62
2022/09/25 10:58:26;;;;;;;3.85;0.88;;;19.80;58.80;;;;;;5108256;27;20035;-62
2022/09/25 11:00:57;;;;;;;3.33;0.80;;;19.90;58.50;;;;;;5109816;28;20332;-62
2022/09/25 11:03:27;;;;;;;2.55;0.88;;;20.00;58.10;;;;;;5115675;28;20143;-62
2022/09/25 11:06:00;;;;;;;2.42;1.00;;;20.20;57.80;;;;;;5115278;28;20032;-62
2022/09/25 11:08:31;;;;;;;2.80;1.00;;;20.30;57.60;;;;;;5116136;28;20057;-62
2022/09/25 11:10:59;;;;;;;3.22;0.98;;;20.10;57.50;;;;;;5115601;28;20076;-62
2022/09/25 11:13:54;;;;;;;6.28;1.10;;;19.80;58.10;;;;;;5115740;28;20229;-62
2022/09/25 11:16:20;;;;;;;3.30;0.90;;;19.50;58.60;;;;;;5112725;28;20476;-62
2022/09/25 11:18:50;;;;;;;3.95;1.38;;;19.30;58.80;;;;;;5114909;28;20031;-62
2022/09/25 11:21:25;;;;;;;3.67;1.20;;;19.40;58.60;;;;;;5114586;28;20139;-62
2022/09/25 11:24:08;;;;;;;1.67;0.75;;;19.50;57.80;;;;;;5114233;28;20028;-62
2022/09/25 11:26:44;;;;;;;4.57;1.10;;;19.60;57.40;;;;;;5116125;28;20455;-62
2022/09/25 11:29:22;;;;;;;2.97;1.20;;;19.80;57.40;;;;;;5113821;28;20070;-62
2022/09/25 11:32:01;;;;;;;3.17;1.05;;;20.00;57.10;;;;;;5116117;28;20093;-62
2022/09/25 11:35:01;;;;;;;1.65;0.90;;;20.10;56.40;;;;;;5114271;28;20081;-62
2022/09/25 11:37:46;;;;;;;1.08;0.50;;;20.20;56.00;;;;;;5061008;28;20048;-62
2022/09/25 11:43:18;;;;;;;4.15;0.88;;;20.30;55.50;;;;;;5053294;28;20045;-62
2022/09/25 11:45:47;;;;;;;;;;;20.40;55.30;;;;;;5056144;28;20041;-62
2022/09/25 11:48:21;;;;;;;1.67;0.75;;;20.40;55.40;;;;;;5053108;28;19916;-65
2022/09/25 11:51:16;;;;;;;2.40;0.95;;;20.30;55.40;;;;;;5055097;28;20087;-62
2022/09/25 11:53:45;;;;;;;4.60;0.80;;;20.20;55.20;;;;;;5057804;28;20362;-62
2022/09/25 11:56:19;;;;;;;2.67;0.82;;;20.10;55.40;;;;;;5058562;28;20052;-62
2022/09/25 11:58:50;;;;;;;2.55;0.93;;;20.10;55.30;;;;;;5053371;28;20067;-62
2022/09/25 12:01:33;;;;;;;3.05;1.05;;;20.00;55.40;;;;;;5047190;28;20056;-62
2022/09/25 12:04:26;;;;;;;3.63;1.10;;;19.90;55.50;;;;;;5053138;28;20037;-62
2022/09/25 12:07:18;;;;;;;1.65;0.88;;;19.60;55.70;;;;;;5054538;28;20040;-62
2022/09/25 12:09:49;;;;;;;2.38;0.77;;;19.30;56.20;;;;;;5057588;28;20059;-62
2022/09/25 12:12:36;;;;;;;4.32;0.88;;;19.10;56.60;;;;;;5059220;28;20040;-62
2022/09/25 12:15:34;;;;;;;4.07;1.10;;;19.10;56.80;;;;;;5087349;28;20412;-62
2022/09/25 12:18:22;;;;;;;3.67;1.27;;;19.00;56.70;;;;;;5107840;27;20019;-62
2022/09/25 12:21:04;;;;;;;1.52;0.70;;;18.90;56.90;;;;;;5113505;28;20128;-62
2022/09/25 12:23:42;;;;;;;2.35;0.80;;;18.80;56.80;;;;;;5113200;28;20054;-62
2022/09/25 12:26:35;;;;;;;4.07;1.27;;;18.70;57.00;;;;;;5114444;28;20019;-62
2022/09/25 12:29:11;;;;;;;4.95;1.10;;;18.60;57.30;;;;;;5114827;28;20047;-62
2022/09/25 12:31:55;;;;;;;1.65;0.90;;;18.50;57.70;;;;;;5113547;28;20036;-62
2022/09/25 12:34:36;;;;;;;2.88;1.17;;;18.50;58.00;;;;;;5108035;28;20024;-62
2022/09/25 12:37:45;;;;;;;4.53;1.33;;;18.40;58.50;;;;;;5130317;27;20079;-62
2022/09/25 12:40:24;;;;;;;3.88;1.10;;;18.40;58.80;;;;;;5130570;27;20023;-61
2022/09/25 12:43:10;;;;;;;3.78;1.02;;;18.40;58.60;;;;;;5115874;28;20042;-62
2022/09/25 12:46:01;;;;;;;2.45;0.80;;;18.50;58.50;;;;;;5113679;28;20034;-62
2022/09/25 12:48:38;;;;;;;2.83;1.10;;;18.50;58.30;;;;;;5113119;28;20031;-62
2022/09/25 12:51:23;;;;;;;2.60;0.90;;;18.50;58.00;;;;;;5114285;28;20110;-62
2022/09/25 12:53:57;;;;;;;5.10;1.15;;;18.60;57.90;;;;;;5114826;28;20035;-62
2022/09/25 12:56:40;;;;;;;2.70;0.90;;;18.70;57.70;;;;;;5112230;28;20027;-62
2022/09/25 12:59:12;;;;;;;3.90;0.93;;;18.70;57.50;;;;;;5111030;28;20570;-61
2022/09/25 13:01:45;;;;;;;3.72;1.15;;;18.70;57.20;;;;;;5113933;28;20076;-62
2022/09/25 13:04:35;;;;;;;1.90;0.80;;;18.80;57.20;;;;;;5113510;28;20356;-62
2022/09/25 13:07:08;;;;;;;0.95;0.63;;;18.90;57.10;;;;;;5110806;28;20356;-62
2022/09/25 13:09:39;;;;;;;2.53;0.73;;;18.90;57.10;;;;;;5129781;28;20020;-62
2022/09/25 13:12:14;;;;;;;2.80;1.00;;;19.00;57.20;;;;;;5099946;28;20038;-61
2022/09/25 13:14:53;;;;;;;2.40;0.88;;;18.90;57.10;;;;;;5115086;28;20498;-60
2022/09/25 13:17:19;;;;;;;5.53;1.13;;;18.90;57.30;;;;;;5107994;28;20352;-60
2022/09/25 13:19:45;;;;;;;2.80;1.10;;;18.90;57.50;;;;;;5117594;27;20038;-60
2022/09/25 13:22:25;;;;;;;3.13;1.20;;;18.90;57.50;;;;;;5118224;27;20020;-60
2022/09/25 13:24:55;;;;;;;3.33;1.00;;;18.90;57.40;;;;;;5118049;28;20455;-61
2022/09/25 13:27:23;;;;;;;4.28;1.10;;;19.00;57.60;;;;;;5103960;27;20024;-60
2022/09/25 13:29:56;;;;;;;5.55;1.10;;;19.00;57.70;;;;;;5114604;27;20325;-60
2022/09/25 13:32:27;;;;;;;2.17;0.90;;;19.10;57.80;;;;;;5118022;27;20034;-60
2022/09/25 13:34:59;;;;;;;4.93;1.13;;;19.10;57.70;;;;;;5109908;28;20034;-60
2022/09/25 13:37:30;;;;;;;;;;;19.10;57.60;;;;;;5116230;27;20119;-60